createdAt,value
2022-08-23T00:00:43.613Z,20.10
2022-08-23T00:03:45.547Z,20.00
2022-08-23T00:06:49.465Z,20.20
2022-08-23T00:09:51.724Z,20.20
2022-08-23T00:12:53.586Z,20.10
2022-08-23T00:15:55.760Z,20.20
2022-08-23T00:18:57.986Z,20.20
2022-08-23T00:21:59.983Z,20.20
2022-08-23T00:25:01.961Z,20.10
2022-08-23T00:28:04.518Z,20.10
2022-08-23T00:31:15.873Z,20.00
2022-08-23T00:34:17.910Z,20.00
2022-08-23T00:37:21.377Z,20.00
2022-08-23T00:40:23.300Z,20.00
2022-08-23T00:43:53.471Z,19.90
2022-08-23T00:47:15.790Z,19.90
2022-08-23T00:50:37.954Z,19.80
2022-08-23T00:53:44.000Z,19.90
2022-08-23T00:56:46.418Z,19.80
2022-08-23T00:59:48.481Z,19.80
2022-08-23T01:02:51.257Z,19.70
2022-08-23T01:06:03.675Z,19.60
2022-08-23T01:09:12.095Z,19.60
2022-08-23T01:12:37.612Z,19.60
2022-08-23T01:15:46.059Z,19.50
2022-08-23T01:18:49.395Z,19.40
2022-08-23T01:22:05.653Z,19.20
2022-08-23T01:25:11.090Z,19.40
2022-08-23T01:28:12.938Z,19.30
2022-08-23T01:31:16.421Z,19.30
2022-08-23T01:34:18.734Z,19.40
2022-08-23T01:37:22.084Z,19.30
2022-08-23T01:40:23.944Z,19.40
2022-08-23T01:43:26.233Z,19.20
2022-08-23T01:46:28.149Z,19.30
2022-08-23T01:49:29.922Z,19.20
2022-08-23T01:52:31.715Z,19.20
2022-08-23T01:55:34.328Z,19.20
2022-08-23T01:58:37.101Z,19.30
2022-08-23T02:01:40.003Z,19.20
2022-08-23T02:04:41.917Z,19.20
2022-08-23T02:07:43.693Z,19.10
2022-08-23T02:10:45.454Z,19.20
2022-08-23T02:13:47.594Z,19.30
2022-08-23T02:17:03.887Z,19.20
2022-08-23T02:20:07.746Z,19.10
2022-08-23T02:23:09.659Z,19.10
2022-08-23T02:26:11.508Z,19.00
2022-08-23T02:29:14.998Z,19.10
2022-08-23T02:32:18.368Z,19.00
2022-08-23T02:35:20.069Z,19.00
2022-08-23T02:38:21.855Z,18.90
2022-08-23T02:41:24.382Z,18.80
2022-08-23T02:44:26.143Z,18.70
2022-08-23T02:47:29.710Z,18.70
2022-08-23T02:50:31.709Z,18.80
2022-08-23T02:53:34.145Z,18.90
2022-08-23T02:56:36.667Z,18.90
2022-08-23T02:59:38.915Z,18.80
2022-08-23T03:02:41.258Z,18.80
2022-08-23T03:05:43.758Z,18.90
2022-08-23T03:08:45.726Z,18.90
2022-08-23T03:11:50.036Z,18.90
2022-08-23T03:14:52.194Z,18.80
2022-08-23T03:17:54.498Z,18.90
2022-08-23T03:20:56.257Z,18.90
2022-08-23T03:23:58.222Z,18.80
2022-08-23T03:27:00.060Z,18.80
2022-08-23T03:30:02.072Z,18.80
2022-08-23T03:33:04.525Z,18.90
2022-08-23T03:36:08.953Z,18.80
2022-08-23T03:39:10.841Z,18.90
2022-08-23T03:42:12.558Z,18.90
2022-08-23T03:45:14.287Z,18.90
2022-08-23T03:48:16.759Z,18.90
2022-08-23T03:51:20.206Z,18.90
2022-08-23T03:54:22.790Z,18.90
2022-08-23T03:57:24.748Z,19.00
2022-08-23T04:00:26.612Z,18.80
2022-08-23T04:03:28.377Z,18.80
2022-08-23T04:06:33.091Z,18.70
2022-08-23T04:09:34.886Z,18.70
2022-08-23T04:12:36.634Z,18.80
2022-08-23T04:15:38.684Z,18.70
2022-08-23T04:18:42.606Z,18.80
2022-08-23T04:21:48.315Z,18.80
2022-08-23T04:24:50.355Z,18.70
2022-08-23T04:27:52.322Z,18.70
2022-08-23T04:30:54.180Z,18.60
2022-08-23T04:33:57.944Z,18.60
2022-08-23T04:37:03.034Z,18.60
2022-08-23T04:40:23.934Z,18.60
2022-08-23T04:43:25.863Z,18.60
2022-08-23T04:46:27.649Z,18.70
2022-08-23T04:49:29.588Z,18.70
2022-08-23T04:52:31.308Z,18.70
2022-08-23T04:55:34.349Z,18.70
2022-08-23T04:58:38.826Z,18.70
2022-08-23T05:01:41.453Z,18.80
2022-08-23T05:04:43.212Z,18.80
2022-08-23T05:07:45.419Z,18.70
2022-08-23T05:10:47.261Z,18.80
2022-08-23T05:13:49.405Z,18.80
2022-08-23T05:16:51.267Z,18.80
2022-08-23T05:19:53.202Z,18.90
2022-08-23T05:22:54.975Z,19.00
2022-08-23T05:25:57.082Z,19.10
2022-08-23T05:28:58.866Z,19.00
2022-08-23T05:32:00.603Z,19.00
2022-08-23T05:35:02.364Z,19.10
2022-08-23T05:38:04.614Z,19.10
2022-08-23T05:41:07.106Z,19.20
2022-08-23T05:44:10.502Z,19.20
2022-08-23T05:47:15.963Z,19.30
2022-08-23T05:50:17.984Z,19.40
2022-08-23T05:53:20.077Z,19.40
2022-08-23T05:56:26.992Z,19.60
2022-08-23T05:59:28.992Z,19.60
2022-08-23T06:02:30.955Z,19.60
2022-08-23T06:05:32.695Z,19.60
2022-08-23T06:08:35.501Z,19.70
2022-08-23T06:11:38.177Z,19.70
2022-08-23T06:14:39.954Z,19.70
2022-08-23T06:17:41.907Z,19.80
2022-08-23T06:20:43.699Z,19.80
2022-08-23T06:23:49.674Z,19.90
2022-08-23T06:26:51.533Z,19.90
2022-08-23T06:29:53.328Z,19.90
2022-08-23T06:32:55.558Z,20.00
2022-08-23T06:36:09.860Z,20.00
2022-08-23T06:39:12.429Z,20.10
2022-08-23T06:42:50.227Z,20.20
2022-08-23T06:45:39.141Z,20.30
2022-08-23T06:48:43.372Z,20.30
2022-08-23T06:51:50.510Z,20.40
2022-08-23T06:54:54.405Z,20.40
2022-08-23T06:57:56.154Z,20.50
2022-08-23T07:01:28.522Z,20.60
2022-08-23T07:04:38.528Z,20.60
2022-08-23T07:07:44.469Z,20.70
2022-08-23T07:10:46.772Z,20.80
2022-08-23T07:13:49.434Z,20.90
2022-08-23T07:16:59.964Z,20.90
2022-08-23T07:20:01.708Z,21.00
2022-08-23T07:23:03.455Z,21.10
2022-08-23T07:26:10.379Z,21.20
2022-08-23T07:29:14.360Z,21.30
2022-08-23T07:32:18.617Z,21.50
2022-08-23T07:35:21.692Z,21.60
2022-08-23T07:38:23.568Z,21.60
2022-08-23T07:41:33.141Z,21.80
2022-08-23T07:44:35.063Z,21.90
2022-08-23T07:47:36.906Z,21.90
2022-08-23T07:50:40.644Z,22.10
2022-08-23T07:53:56.723Z,22.30
2022-08-23T07:56:59.083Z,22.40
2022-08-23T08:00:00.813Z,22.40
2022-08-23T08:03:02.630Z,22.50
2022-08-23T08:06:13.309Z,22.60
2022-08-23T08:09:15.677Z,22.70
2022-08-23T08:12:17.833Z,22.80
2022-08-23T08:15:20.690Z,22.90
2022-08-23T08:18:22.438Z,23.10
2022-08-23T08:21:25.009Z,23.10
2022-08-23T08:24:26.774Z,23.20
2022-08-23T08:27:28.677Z,23.30
2022-08-23T08:30:30.766Z,23.40
2022-08-23T08:33:34.290Z,23.50
2022-08-23T08:36:38.384Z,23.60
2022-08-23T08:39:46.916Z,23.70
2022-08-23T08:43:26.680Z,23.80
2022-08-23T08:46:45.657Z,24.00
2022-08-23T08:50:05.623Z,24.00
2022-08-23T08:53:16.323Z,24.10
2022-08-23T08:56:32.337Z,24.20
2022-08-23T08:59:55.052Z,24.40
2022-08-23T09:02:59.513Z,24.50
2022-08-23T09:06:25.661Z,24.50
2022-08-23T09:10:05.157Z,24.50
2022-08-23T09:13:24.745Z,24.60
2022-08-23T09:16:50.896Z,24.60
2022-08-23T09:19:57.662Z,24.70
2022-08-23T09:23:13.073Z,24.80
2022-08-23T09:26:32.713Z,24.80
2022-08-23T09:29:36.942Z,24.90
2022-08-23T09:32:44.063Z,25.00
2022-08-23T09:36:08.443Z,25.10
2022-08-23T09:39:31.181Z,25.10
2022-08-23T09:42:37.242Z,25.10
2022-08-23T09:45:42.322Z,25.10
2022-08-23T09:48:46.816Z,25.10
2022-08-23T09:51:50.255Z,25.20
2022-08-23T09:54:57.951Z,25.30
2022-08-23T09:58:07.112Z,25.30
2022-08-23T10:01:25.869Z,25.30
2022-08-23T10:04:33.596Z,25.30
2022-08-23T10:07:38.699Z,25.30
2022-08-23T10:10:54.701Z,25.40
2022-08-23T10:13:56.852Z,25.40
2022-08-23T10:17:21.778Z,25.40
2022-08-23T10:20:29.075Z,25.50
2022-08-23T10:24:02.013Z,25.50
2022-08-23T10:28:04.581Z,25.50
2022-08-23T10:31:25.554Z,25.50
2022-08-23T10:34:53.589Z,25.50
2022-08-23T10:38:13.459Z,25.60
2022-08-23T10:41:49.605Z,25.60
2022-08-23T10:45:04.059Z,25.70
2022-08-23T10:48:05.727Z,25.80
2022-08-23T10:51:40.395Z,25.80
2022-08-23T10:55:00.950Z,25.80
2022-08-23T10:58:06.913Z,25.80
2022-08-23T11:01:12.868Z,25.90
2022-08-23T11:04:36.607Z,26.00
2022-08-23T11:07:42.904Z,26.10
2022-08-23T11:10:56.387Z,26.10
2022-08-23T11:13:59.726Z,26.00
2022-08-23T11:17:07.810Z,25.90
2022-08-23T11:20:12.609Z,25.90
2022-08-23T11:23:34.079Z,25.90
2022-08-23T11:26:40.173Z,26.00
2022-08-23T11:29:43.539Z,26.20
2022-08-23T11:32:46.724Z,26.30
2022-08-23T11:35:55.217Z,26.40
2022-08-23T11:38:56.972Z,26.40
2022-08-23T11:42:00.200Z,26.40
2022-08-23T11:45:03.314Z,26.50
2022-08-23T11:48:43.580Z,26.60
2022-08-23T11:52:04.568Z,26.70
2022-08-23T11:55:15.480Z,26.70
2022-08-23T11:58:43.566Z,26.60
2022-08-23T12:01:47.269Z,26.60
2022-08-23T12:04:53.396Z,26.70
2022-08-23T12:08:23.016Z,26.80
2022-08-23T12:11:26.013Z,26.90
2022-08-23T12:14:56.916Z,26.90
2022-08-23T12:18:12.131Z,26.90
2022-08-23T12:21:28.156Z,26.90
2022-08-23T12:24:34.013Z,26.90
2022-08-23T12:27:38.653Z,27.00
2022-08-23T12:30:59.939Z,27.00
2022-08-23T12:34:21.092Z,27.00
2022-08-23T12:37:25.668Z,27.00
2022-08-23T12:40:37.624Z,26.90
2022-08-23T12:43:55.744Z,26.90
2022-08-23T12:47:08.892Z,26.80
2022-08-23T12:50:13.582Z,26.80
2022-08-23T12:53:25.550Z,26.90
2022-08-23T12:56:32.127Z,27.00
2022-08-23T12:59:47.514Z,27.10
2022-08-23T13:03:17.989Z,27.20
2022-08-23T13:06:24.719Z,27.20
2022-08-23T13:09:29.558Z,27.20
2022-08-23T13:12:31.335Z,27.30
2022-08-23T13:15:44.842Z,27.30
2022-08-23T13:18:46.866Z,27.40
2022-08-23T13:22:08.317Z,27.30
2022-08-23T13:25:32.119Z,27.30
2022-08-23T13:28:34.603Z,27.40
2022-08-23T13:32:04.117Z,27.30
2022-08-23T13:35:26.636Z,27.40
2022-08-23T13:38:32.979Z,27.50
2022-08-23T13:41:39.166Z,27.50
2022-08-23T13:44:43.108Z,27.50
2022-08-23T13:47:50.829Z,27.50
2022-08-23T13:50:53.717Z,27.40
2022-08-23T13:53:57.135Z,27.30
2022-08-23T13:57:06.173Z,27.20
2022-08-23T14:00:10.771Z,27.20
2022-08-23T14:03:12.765Z,27.20
2022-08-23T14:06:14.816Z,27.30
2022-08-23T14:09:17.203Z,27.40
2022-08-23T14:12:22.941Z,27.50
2022-08-23T14:15:54.593Z,27.60
2022-08-23T14:22:08.413Z,27.60
2022-08-23T14:25:12.490Z,27.50
2022-08-23T14:28:14.451Z,27.40
2022-08-23T14:31:16.436Z,27.40
2022-08-23T14:34:19.519Z,27.50
2022-08-23T14:38:02.507Z,27.50
2022-08-23T14:40:53.008Z,27.40
2022-08-23T14:43:55.352Z,27.50
2022-08-23T14:46:57.078Z,27.70
2022-08-23T14:49:58.849Z,27.70
2022-08-23T14:53:03.747Z,27.70
2022-08-23T14:56:20.359Z,27.70
2022-08-23T14:59:23.057Z,27.70
2022-08-23T15:02:26.798Z,27.70
2022-08-23T15:05:28.662Z,27.70
2022-08-23T15:08:30.666Z,27.70
2022-08-23T15:14:57.055Z,27.60
2022-08-23T15:18:03.753Z,27.60
2022-08-23T15:21:06.275Z,27.50
2022-08-23T15:24:08.087Z,27.50
2022-08-23T15:27:10.300Z,27.60
2022-08-23T15:30:14.982Z,27.70
2022-08-23T15:33:17.558Z,27.70
2022-08-23T15:36:20.923Z,27.80
2022-08-23T15:39:23.963Z,27.70
2022-08-23T15:42:25.953Z,27.80
2022-08-23T15:45:27.940Z,27.70
2022-08-23T15:48:35.498Z,27.70
2022-08-23T15:51:37.776Z,27.70
2022-08-23T15:54:42.117Z,27.70
2022-08-23T15:57:54.421Z,27.70
2022-08-23T16:00:56.339Z,27.80
2022-08-23T16:03:58.130Z,27.70
2022-08-23T16:07:00.715Z,27.70
2022-08-23T16:10:06.575Z,27.70
2022-08-23T16:13:08.285Z,27.70
2022-08-23T16:16:20.845Z,27.70
2022-08-23T16:19:22.919Z,27.70
2022-08-23T16:22:25.486Z,27.70
2022-08-23T16:25:27.269Z,27.70
2022-08-23T16:28:29.018Z,27.60
2022-08-23T16:31:37.658Z,27.60
2022-08-23T16:34:41.201Z,27.70
2022-08-23T16:37:42.919Z,27.60
2022-08-23T16:40:44.645Z,27.60
2022-08-23T16:43:48.316Z,27.60
2022-08-23T16:46:51.692Z,27.60
2022-08-23T16:49:54.072Z,27.60
2022-08-23T16:52:55.904Z,27.50
2022-08-23T16:55:57.675Z,27.50
2022-08-23T16:58:59.665Z,27.40
2022-08-23T17:02:10.483Z,27.40
2022-08-23T17:05:16.223Z,27.40
2022-08-23T17:08:18.224Z,27.40
2022-08-23T17:11:20.157Z,27.40
2022-08-23T17:14:24.093Z,27.30
2022-08-23T17:17:26.129Z,27.30
2022-08-23T17:20:30.716Z,27.30
2022-08-23T17:23:33.110Z,27.30
2022-08-23T17:26:39.600Z,27.30
2022-08-23T17:29:41.732Z,27.30
2022-08-23T17:32:44.345Z,27.20
2022-08-23T17:35:46.427Z,27.20
2022-08-23T17:38:48.257Z,27.20
2022-08-23T17:41:50.360Z,27.10
2022-08-23T17:44:52.241Z,27.10
2022-08-23T17:47:54.188Z,27.10
2022-08-23T17:50:55.888Z,27.00
2022-08-23T17:53:57.729Z,26.90
2022-08-23T17:57:00.699Z,26.90
2022-08-23T18:00:03.426Z,26.90
2022-08-23T18:03:06.422Z,26.80
2022-08-23T18:06:16.489Z,26.80
2022-08-23T18:09:19.852Z,26.80
2022-08-23T18:12:23.158Z,26.70
2022-08-23T18:15:26.093Z,26.70
2022-08-23T18:18:29.239Z,26.60
2022-08-23T18:21:31.311Z,26.60
2022-08-23T18:24:33.251Z,26.40
2022-08-23T18:27:53.742Z,26.40
2022-08-23T18:30:56.325Z,26.40
2022-08-23T18:34:00.607Z,26.30
2022-08-23T18:37:03.273Z,26.30
2022-08-23T18:40:09.636Z,26.20
2022-08-23T18:43:26.937Z,26.20
2022-08-23T18:46:40.882Z,26.10
2022-08-23T18:49:42.902Z,26.00
2022-08-23T18:52:44.692Z,26.00
2022-08-23T18:55:46.803Z,26.00
2022-08-23T18:58:48.983Z,25.90
2022-08-23T19:01:51.227Z,25.80
2022-08-23T19:04:53.309Z,25.80
2022-08-23T19:07:55.504Z,25.70
2022-08-23T19:10:57.255Z,25.70
2022-08-23T19:14:00.237Z,25.70
2022-08-23T19:17:04.215Z,25.70
2022-08-23T19:20:08.044Z,25.60
2022-08-23T19:23:09.772Z,25.60
2022-08-23T19:26:13.072Z,25.50
2022-08-23T19:29:18.365Z,25.50
2022-08-23T19:32:21.199Z,25.50
2022-08-23T19:35:22.997Z,25.40
2022-08-23T19:38:27.699Z,25.40
2022-08-23T19:41:31.139Z,25.30
2022-08-23T19:44:34.636Z,25.20
2022-08-23T19:47:36.385Z,25.20
2022-08-23T19:50:41.125Z,25.20
2022-08-23T19:54:03.347Z,25.20
2022-08-23T19:57:08.150Z,25.10
2022-08-23T20:00:19.381Z,25.00
2022-08-23T20:03:21.800Z,25.00
2022-08-23T20:06:23.752Z,25.00
2022-08-23T20:09:28.733Z,24.90
2022-08-23T20:12:32.207Z,24.80
2022-08-23T20:15:34.234Z,24.80
2022-08-23T20:18:36.013Z,24.80
2022-08-23T20:21:39.589Z,24.70
2022-08-23T20:24:50.961Z,24.70
2022-08-23T20:27:53.817Z,24.70
2022-08-23T20:30:56.097Z,24.70
2022-08-23T20:33:57.976Z,24.50
2022-08-23T20:37:00.102Z,24.50
2022-08-23T20:40:03.686Z,24.50
2022-08-23T20:43:05.819Z,24.50
2022-08-23T20:46:09.016Z,24.40
2022-08-23T20:49:11.589Z,24.50
2022-08-23T20:52:13.641Z,24.40
2022-08-23T20:55:15.466Z,24.40
2022-08-23T20:58:17.213Z,24.30
2022-08-23T21:01:19.491Z,24.30
2022-08-23T21:04:21.626Z,24.30
2022-08-23T21:07:32.095Z,24.20
2022-08-23T21:10:34.372Z,24.10
2022-08-23T21:13:36.391Z,24.10
2022-08-23T21:16:39.146Z,24.00
2022-08-23T21:19:41.021Z,24.00
2022-08-23T21:22:42.820Z,23.90
2022-08-23T21:25:44.682Z,23.90
2022-08-23T21:28:46.585Z,23.90
2022-08-23T21:31:48.878Z,23.90
2022-08-23T21:34:51.175Z,23.80
2022-08-23T21:37:52.961Z,23.70
2022-08-23T21:41:00.288Z,23.70
2022-08-23T21:44:03.705Z,23.70
2022-08-23T21:47:05.482Z,23.70
2022-08-23T21:50:08.194Z,23.50
2022-08-23T21:53:10.209Z,23.60
2022-08-23T21:56:12.380Z,23.50
2022-08-23T21:59:16.736Z,23.50
2022-08-23T22:02:19.202Z,23.40
2022-08-23T22:05:21.834Z,23.40
2022-08-23T22:08:23.790Z,23.30
2022-08-23T22:11:25.733Z,23.40
2022-08-23T22:14:31.581Z,23.40
2022-08-23T22:17:33.813Z,23.40
2022-08-23T22:20:36.078Z,23.40
2022-08-23T22:23:41.935Z,23.30
2022-08-23T22:26:44.851Z,23.20
2022-08-23T22:29:46.789Z,23.10
2022-08-23T22:32:49.877Z,23.10
2022-08-23T22:35:52.388Z,23.00
2022-08-23T22:38:54.124Z,23.00
2022-08-23T22:41:55.937Z,22.90
2022-08-23T22:44:58.410Z,22.90
2022-08-23T22:48:00.704Z,22.90
2022-08-23T22:51:07.057Z,22.80
2022-08-23T22:54:10.676Z,22.80
2022-08-23T22:57:12.411Z,22.80
2022-08-23T23:00:16.244Z,22.80
2022-08-23T23:03:18.373Z,22.70
2022-08-23T23:06:20.679Z,22.60
2022-08-23T23:09:22.988Z,22.70
2022-08-23T23:12:26.473Z,22.70
2022-08-23T23:15:28.240Z,22.70
2022-08-23T23:18:30.056Z,22.60
2022-08-23T23:21:37.506Z,22.60
2022-08-23T23:24:40.130Z,22.60
2022-08-23T23:27:41.831Z,22.60
2022-08-23T23:30:45.530Z,22.60
2022-08-23T23:33:47.503Z,22.60
2022-08-23T23:36:49.377Z,22.50
2022-08-23T23:39:51.249Z,22.50
2022-08-23T23:42:53.558Z,22.40
2022-08-23T23:45:55.542Z,22.30
2022-08-23T23:48:57.993Z,22.30
2022-08-23T23:51:59.895Z,22.20
2022-08-23T23:55:03.652Z,22.20
2022-08-23T23:58:05.402Z,22.20
